Lihue, HI

1:39 PM HST on July 01, 2015 (GMT -1000)
Lihue | | Change Station
CLOSE
Current Station
Personal Weather Station
Location: Lihue, HI
Elevation: 342 ft
Nearby Weather Stations

Elev 342 ft 21.97 °N, 159.40 °W | Updated 36 minutes ago

Partly Cloudy
Partly Cloudy
88.5 °F
Feels Like 96 °F
N
2.2
Wind Variable Wind from SSW
Gusts 4.9 mph

Today
High -- | Low -- °F
--% Chance of Precip.
Yesterday
High -- | Low -- °F
Precip. -- in
5:57 AM 7:24 PM
Full, 100% visible
Pressure 29.87 in
Visibility 10.0 miles
Clouds Few 4900 ft
Heat Index 96 °F
Dew Point 73 °F
Humidity 59%
Rainfall -999.00 in
Snow Depth Not available.
UV 12 out of 12
Pollen Not available.
Air Quality Not available.
Flu Activity Not available.
METAR PHLI 012253Z 23009G19KT 150V290 10SM FEW049 31/20 A2988 RMK AO2 SLP114 T03060200

More Conditions Fewer Conditions

Pressure 29.87 in
Visibility 10.0 miles
Clouds Few 4900 ft
Heat Index 96 °F
Dew Point 73 °F
Humidity 59%
Rainfall -999.00 in
Snow Depth Not available.
UV 12 out of 12
Pollen Not available.
Air Quality Not available.
Flu Activity Not available.
METAR PHLI 012253Z 23009G19KT 150V290 10SM FEW049 31/20 A2988 RMK AO2 SLP114 T03060200

More Conditions Fewer Conditions

10-Day Weather Forecast

×

Almanac

Astronomy

Jul. 01, 2015 Rise Set
Actual Time
Civil Twilight
Nautical Twilight
Astronomical Twilight
Moon
Length of Visible Light
Length of Day
Tomorrow will be .
, % of the Moon is Illuminated

Today's Extremes

State Highs State Lows

Community

WunderPhotos

Upload Photos

1,834,339 photos uploaded!

WunderBlogs® & News

Nearby

Air Quality

  Air Quality AQ Index Pollutant
Not available.

Snow Depth

Station Depth Elevation

Earthquake Activity

City Distance Mag. Time & Date
Minimum magnitude displayed is 2.5.

Coastal Water Temperatures

Place Temperature

Stations

Nearby Weather Stations

Station Location Temp. Windchill Dew Point Humidity Wind Precip. Elev Updated Type